Annou G.o. — V7UI5 — position and weather

sailwx.info

Track history (hours):
 
Tides and Currents Weather Stations Pressure Air Temp Water Temp Dewpoint Dewpoint Depression Visibility Wind Speed Wind Dir Waves Ship Positions

Annou G.o.

Last reported at 2018-Jun-23 08:06 UTC. Time now 2018-Jun-23 15:50 UTC.
Position N 38°53' E 121°58'.

Length 229 m; draft 8.1 m.

Type: Cargo ship. MMSI: 538003955.

Date/timePositionNaut miles runAvg speedWind from/ knotsBaromVisibWave heightAir tempDewpointWater temp
2018-Jun-23 08:06N 38°53' E 121°58'0 0.0
2018-Jun-23 07:36N 38°53' E 121°58'0 0.0
2018-Jun-23 07:30N 38°53' E 121°58'4 0.1
2018-Jun-21 20:00N 38°49' E 121°57'710.3
2018-Jun-21 19:20N 38°42' E 121°57'411.4
2018-Jun-21 19:00N 38°39' E 121°54'712.5
2018-Jun-21 18:25N 38°34' E 121°48'1212.6
2018-Jun-21 17:28N 38°27' E 121°35'613.4
2018-Jun-21 17:00N 38°26' E 121°28'812.6
2018-Jun-21 16:21N 38°25' E 121°17'513.3
2018-Jun-21 15:59N 38°27' E 121°11'1212.7
2018-Jun-21 15:02N 38°31' E 120°57'012.3
2018-Jun-21 15:00N 38°32' E 120°57'812.6
2018-Jun-21 14:22N 38°34' E 120°47'512.4
2018-Jun-21 13:56N 38°34' E 120°40'511.9
2018-Jun-21 13:30N 38°35' E 120°34'611.8
2018-Jun-21 13:00N 38°36' E 120°26'611.5
2018-Jun-21 12:30N 38°37' E 120°19'611.5
2018-Jun-21 12:00N 38°38' E 120°12'611.1
2018-Jun-21 11:30N 38°39' E 120°05'90 6.8
2018-Jun-20 22:10N 38°50' E 118°10'0 0.0
2018-Jun-20 19:13N 38°50' E 118°10'0 0.1
2018-Jun-20 17:49N 38°50' E 118°10'0 0.0
2018-Jun-20 13:19N 38°50' E 118°10'0 0.1
2018-Jun-20 12:49N 38°50' E 118°10'  
Track history (hours):
 
Tides and Currents Weather Stations Pressure Air Temp Water Temp Dewpoint Dewpoint Depression Visibility Wind Speed Wind Dir Waves Ship Positions

Annou G.o.

Last reported at 2018-Jun-23 08:06 UTC. Time now 2018-Jun-23 15:50 UTC.
Position N 38°53' E 121°58'.

Length 229 m; draft 8.1 m.

Type: Cargo ship. MMSI: 538003955.

Date/timePositionNaut miles runAvg speedWind from/ knotsBaromVisibWave heightAir tempDewpointWater temp
2018-Jun-23 08:06N 38°53' E 121°58'0 0.0
2018-Jun-23 07:36N 38°53' E 121°58'0 0.0
2018-Jun-23 07:30N 38°53' E 121°58'4 0.1
2018-Jun-21 20:00N 38°49' E 121°57'710.3
2018-Jun-21 19:20N 38°42' E 121°57'411.4
2018-Jun-21 19:00N 38°39' E 121°54'712.5
2018-Jun-21 18:25N 38°34' E 121°48'1212.6
2018-Jun-21 17:28N 38°27' E 121°35'613.4
2018-Jun-21 17:00N 38°26' E 121°28'812.6
2018-Jun-21 16:21N 38°25' E 121°17'513.3
2018-Jun-21 15:59N 38°27' E 121°11'1212.7
2018-Jun-21 15:02N 38°31' E 120°57'012.3
2018-Jun-21 15:00N 38°32' E 120°57'812.6
2018-Jun-21 14:22N 38°34' E 120°47'512.4
2018-Jun-21 13:56N 38°34' E 120°40'511.9
2018-Jun-21 13:30N 38°35' E 120°34'611.8
2018-Jun-21 13:00N 38°36' E 120°26'611.5
2018-Jun-21 12:30N 38°37' E 120°19'611.5
2018-Jun-21 12:00N 38°38' E 120°12'611.1
2018-Jun-21 11:30N 38°39' E 120°05'90 6.8
2018-Jun-20 22:10N 38°50' E 118°10'0 0.0
2018-Jun-20 19:13N 38°50' E 118°10'0 0.1
2018-Jun-20 17:49N 38°50' E 118°10'0 0.0
2018-Jun-20 13:19N 38°50' E 118°10'0 0.1
2018-Jun-20 12:49N 38°50' E 118°10'  

Dump ship's entire track history